Time,TemperatureF,DewpointF,PressureIn,WindDirection,WindDirectionDegrees,WindSpeedMPH,WindSpeedGustMPH,Humidity,HourlyPrecipIn,Conditions,Clouds,dailyrainin,SoftwareType,DateUTC
2013-01-18 00:03:00,32.0,27.0,30.18,West,278,7.0,12.0,83,0.00,,,0.01,,2013-01-18 05:03:00,
2013-01-18 00:12:00,32.0,27.0,30.18,West,278,7.0,12.0,83,0.00,,,0.01,,2013-01-18 05:12:00,
2013-01-18 00:22:00,32.0,27.0,30.18,WSW,241,5.0,11.0,83,0.00,,,0.01,,2013-01-18 05:22:00,
2013-01-18 00:33:00,31.0,26.0,30.18,WSW,246,5.0,12.0,83,0.00,,,0.01,,2013-01-18 05:33:00,
2013-01-18 00:42:00,31.0,26.0,30.18,WSW,246,5.0,12.0,83,0.00,,,0.01,,2013-01-18 05:42:00,
2013-01-18 00:53:00,31.0,26.0,30.19,West,277,5.0,15.0,83,0.00,,,0.01,,2013-01-18 05:53:00,
2013-01-18 01:02:00,31.0,26.0,30.20,WSW,252,6.0,11.0,82,0.00,,,0.01,,2013-01-18 06:02:00,
2013-01-18 01:12:00,31.0,26.0,30.20,WSW,252,6.0,11.0,82,0.00,,,0.01,,2013-01-18 06:12:00,
2013-01-18 01:22:00,31.0,26.0,30.21,WNW,289,4.0,9.0,82,0.00,,,0.01,,2013-01-18 06:22:00,
2013-01-18 01:33:00,31.0,26.0,30.22,West,261,4.0,8.0,82,0.00,,,0.01,,2013-01-18 06:33:00,
2013-01-18 01:43:00,31.0,26.0,30.22,West,261,4.0,8.0,82,0.00,,,0.01,,2013-01-18 06:43:00,
2013-01-18 01:53:00,31.0,24.0,30.24,WSW,244,6.0,14.0,74,0.00,,,0.01,,2013-01-18 06:53:00,
2013-01-18 02:02:00,30.0,21.0,30.25,West,271,7.0,16.0,70,0.00,,,0.01,,2013-01-18 07:02:00,
2013-01-18 02:12:00,30.0,21.0,30.25,West,271,7.0,16.0,70,0.00,,,0.01,,2013-01-18 07:12:00,
2013-01-18 02:22:00,29.0,21.0,30.26,West,261,4.0,11.0,72,0.00,,,0.01,,2013-01-18 07:22:00,
2013-01-18 02:32:00,29.0,21.0,30.28,WNW,292,3.0,13.0,72,0.00,,,0.01,,2013-01-18 07:32:00,
2013-01-18 02:42:00,29.0,21.0,30.28,WNW,292,3.0,13.0,72,0.00,,,0.01,,2013-01-18 07:42:00,
2013-01-18 02:52:00,28.0,20.0,30.29,NW,316,5.0,13.0,70,0.00,,,0.01,,2013-01-18 07:52:00,
2013-01-18 03:02:00,28.0,19.0,30.30,WNW,289,5.0,11.0,68,0.00,,,0.01,,2013-01-18 08:02:00,
2013-01-18 03:12:00,28.0,19.0,30.30,WNW,289,5.0,11.0,68,0.00,,,0.01,,2013-01-18 08:12:00,
2013-01-18 03:22:00,28.0,20.0,30.31,West,264,5.0,9.0,70,0.00,,,0.01,,2013-01-18 08:22:00,
2013-01-18 03:32:00,27.0,19.0,30.32,West,261,5.0,11.0,71,0.00,,,0.01,,2013-01-18 08:32:00,
2013-01-18 03:42:00,27.0,19.0,30.32,West,261,5.0,11.0,71,0.00,,,0.01,,2013-01-18 08:42:00,
2013-01-18 03:53:00,27.0,18.0,30.33,WNW,282,7.0,13.0,68,0.00,,,0.01,,2013-01-18 08:53:00,
2013-01-18 04:02:00,26.0,17.0,30.34,SW,231,7.0,12.0,68,0.00,,,0.01,,2013-01-18 09:02:00,
2013-01-18 04:12:00,26.0,17.0,30.34,SW,231,7.0,12.0,68,0.00,,,0.01,,2013-01-18 09:12:00,
2013-01-18 04:22:00,26.0,17.0,30.34,WNW,287,6.0,14.0,67,0.00,,,0.01,,2013-01-18 09:22:00,
2013-01-18 04:33:00,25.0,16.0,30.35,SSW,207,3.0,11.0,68,0.00,,,0.01,,2013-01-18 09:33:00,
2013-01-18 04:42:00,25.0,16.0,30.35,SSW,207,3.0,11.0,68,0.00,,,0.01,,2013-01-18 09:42:00,
2013-01-18 04:53:00,25.0,16.0,30.36,WNW,292,5.0,9.0,68,0.00,,,0.01,,2013-01-18 09:53:00,
2013-01-18 05:03:00,25.0,16.0,30.37,WNW,295,4.0,10.0,67,0.00,,,0.01,,2013-01-18 10:03:00,
2013-01-18 05:12:00,25.0,16.0,30.37,WNW,295,4.0,10.0,67,0.00,,,0.01,,2013-01-18 10:12:00,
2013-01-18 05:22:00,24.0,15.0,30.38,WNW,290,6.0,11.0,68,0.00,,,0.01,,2013-01-18 10:22:00,
2013-01-18 05:32:00,24.0,15.0,30.40,WSW,248,3.0,8.0,69,0.00,,,0.01,,2013-01-18 10:32:00,
2013-01-18 05:42:00,24.0,15.0,30.40,WSW,248,3.0,8.0,69,0.00,,,0.01,,2013-01-18 10:42:00,
2013-01-18 05:53:00,24.0,15.0,30.40,WNW,294,5.0,10.0,69,0.00,,,0.01,,2013-01-18 10:53:00,
2013-01-18 06:02:00,24.0,17.0,30.41,West,279,7.0,11.0,74,0.00,,,0.01,,2013-01-18 11:02:00,
2013-01-18 06:12:00,24.0,17.0,30.41,West,279,7.0,11.0,74,0.00,,,0.01,,2013-01-18 11:12:00,
2013-01-18 06:23:00,23.0,15.0,30.43,NW,307,5.0,14.0,70,0.00,,,0.01,,2013-01-18 11:23:00,
2013-01-18 06:32:00,22.0,12.0,30.44,WNW,293,8.0,13.0,66,0.00,,,0.01,,2013-01-18 11:32:00,
2013-01-18 06:42:00,22.0,12.0,30.44,WNW,293,8.0,13.0,66,0.00,,,0.01,,2013-01-18 11:42:00,
2013-01-18 06:53:00,22.0,12.0,30.45,WNW,298,4.0,12.0,65,0.00,,,0.01,,2013-01-18 11:53:00,
2013-01-18 07:03:00,21.0,11.0,30.45,NW,313,5.0,12.0,65,0.00,,,0.01,,2013-01-18 12:03:00,
2013-01-18 07:12:00,21.0,11.0,30.45,NW,313,5.0,12.0,65,0.00,,,0.01,,2013-01-18 12:12:00,
2013-01-18 07:23:00,21.0,11.0,30.46,WNW,285,4.0,9.0,64,0.00,,,0.01,,2013-01-18 12:23:00,
2013-01-18 07:33:00,21.0,10.0,30.46,WNW,302,1.0,9.0,62,0.00,,,0.01,,2013-01-18 12:33:00,
2013-01-18 07:43:00,21.0,10.0,30.46,WNW,302,1.0,9.0,62,0.00,,,0.01,,2013-01-18 12:43:00,
2013-01-18 07:53:00,20.0,9.0,30.47,WNW,290,2.0,5.0,62,0.00,,,0.01,,2013-01-18 12:53:00,
2013-01-18 08:03:00,20.0,9.0,30.47,WSW,252,1.0,3.0,62,0.00,,,0.01,,2013-01-18 13:03:00,
2013-01-18 08:12:00,20.0,9.0,30.47,WSW,252,1.0,3.0,62,0.00,,,0.01,,2013-01-18 13:12:00,
2013-01-18 08:23:00,20.0,9.0,30.47,WSW,254,1.0,4.0,63,0.00,,,0.01,,2013-01-18 13:23:00,
2013-01-18 08:33:00,20.0,9.0,30.47,WSW,241,1.0,4.0,63,0.00,,,0.01,,2013-01-18 13:33:00,
2013-01-18 08:43:00,20.0,9.0,30.47,WSW,241,1.0,4.0,63,0.00,,,0.01,,2013-01-18 13:43:00,
2013-01-18 08:53:00,21.0,10.0,30.47,WNW,285,1.0,5.0,62,0.00,,,0.01,,2013-01-18 13:53:00,
2013-01-18 09:03:00,21.0,10.0,30.49,NW,304,4.0,7.0,61,0.00,,,0.01,,2013-01-18 14:03:00,
2013-01-18 09:12:00,21.0,10.0,30.49,NW,304,4.0,7.0,61,0.00,,,0.01,,2013-01-18 14:12:00,
2013-01-18 09:23:00,22.0,10.0,30.49,WSW,258,3.0,6.0,58,0.00,,,0.01,,2013-01-18 14:23:00,
2013-01-18 09:33:00,23.0,11.0,30.49,NW,317,2.0,8.0,60,0.00,,,0.01,,2013-01-18 14:33:00,
2013-01-18 09:42:00,23.0,11.0,30.49,NW,317,2.0,8.0,60,0.00,,,0.01,,2013-01-18 14:42:00,
2013-01-18 09:53:00,23.0,12.0,30.49,West,279,2.0,7.0,61,0.00,,,0.01,,2013-01-18 14:53:00,
2013-01-18 10:03:00,24.0,12.0,30.50,WSW,242,2.0,6.0,59,0.00,,,0.01,,2013-01-18 15:03:00,
2013-01-18 10:13:00,24.0,12.0,30.50,WSW,242,2.0,6.0,59,0.00,,,0.01,,2013-01-18 15:13:00,
2013-01-18 10:23:00,24.0,12.0,30.51,WNW,296,2.0,7.0,59,0.00,,,0.01,,2013-01-18 15:23:00,
2013-01-18 10:33:00,25.0,13.0,30.51,WNW,287,4.0,9.0,60,0.00,,,0.01,,2013-01-18 15:33:00,
2013-01-18 10:43:00,25.0,13.0,30.51,WNW,287,4.0,9.0,60,0.00,,,0.01,,2013-01-18 15:43:00,
2013-01-18 10:54:00,26.0,14.0,30.51,WSW,240,2.0,6.0,60,0.00,,,0.01,,2013-01-18 15:54:00,
2013-01-18 11:03:00,26.0,13.0,30.51,West,273,1.0,8.0,57,0.00,,,0.01,,2013-01-18 16:03:00,
2013-01-18 11:12:00,26.0,13.0,30.51,West,273,1.0,8.0,57,0.00,,,0.01,,2013-01-18 16:12:00,
2013-01-18 11:23:00,26.0,12.0,30.51,West,265,3.0,5.0,56,0.00,,,0.01,,2013-01-18 16:23:00,
2013-01-18 11:33:00,26.0,13.0,30.50,South,188,5.0,8.0,57,0.00,,,0.01,,2013-01-18 16:33:00,
2013-01-18 11:42:00,26.0,13.0,30.50,South,188,5.0,8.0,57,0.00,,,0.01,,2013-01-18 16:42:00,
2013-01-18 11:53:00,26.0,13.0,30.50,NW,326,3.0,7.0,58,0.00,,,0.01,,2013-01-18 16:53:00,
2013-01-18 12:03:00,27.0,14.0,30.49,SW,217,2.0,8.0,58,0.00,,,0.01,,2013-01-18 17:03:00,
2013-01-18 12:13:00,27.0,14.0,30.49,SW,217,2.0,8.0,58,0.00,,,0.01,,2013-01-18 17:13:00,
2013-01-18 12:23:00,28.0,16.0,30.48,WSW,239,3.0,7.0,60,0.00,,,0.01,,2013-01-18 17:23:00,
2013-01-18 12:33:00,28.0,14.0,30.46,West,260,4.0,9.0,54,0.00,,,0.01,,2013-01-18 17:33:00,
2013-01-18 12:43:00,28.0,14.0,30.46,West,260,4.0,9.0,54,0.00,,,0.01,,2013-01-18 17:43:00,
2013-01-18 12:53:00,28.0,14.0,30.46,SE,124,3.0,7.0,55,0.00,,,0.01,,2013-01-18 17:53:00,
2013-01-18 13:03:00,29.0,15.0,30.45,WSW,239,4.0,8.0,56,0.00,,,0.01,,2013-01-18 18:03:00,
2013-01-18 13:13:00,29.0,15.0,30.45,WSW,239,4.0,8.0,56,0.00,,,0.01,,2013-01-18 18:13:00,
2013-01-18 13:23:00,30.0,17.0,30.45,West,274,3.0,9.0,57,0.00,,,0.01,,2013-01-18 18:23:00,
2013-01-18 13:33:00,29.0,15.0,30.44,WNW,295,2.0,11.0,55,0.00,,,0.01,,2013-01-18 18:33:00,
2013-01-18 13:43:00,29.0,15.0,30.44,WNW,295,2.0,11.0,55,0.00,,,0.01,,2013-01-18 18:43:00,
2013-01-18 13:53:00,29.0,14.0,30.45,SSW,207,3.0,12.0,54,0.00,,,0.01,,2013-01-18 18:53:00,
2013-01-18 14:03:00,30.0,16.0,30.44,WSW,240,1.0,9.0,55,0.00,,,0.01,,2013-01-18 19:03:00,
2013-01-18 14:13:00,30.0,16.0,30.44,WSW,240,1.0,9.0,55,0.00,,,0.01,,2013-01-18 19:13:00,
2013-01-18 14:23:00,30.0,15.0,30.45,West,271,4.0,10.0,53,0.00,,,0.00,,2013-01-18 19:23:00,
2013-01-18 14:33:00,31.0,16.0,30.44,WSW,248,1.0,9.0,53,0.00,,,0.00,,2013-01-18 19:33:00,
2013-01-18 14:43:00,31.0,16.0,30.44,WSW,248,1.0,9.0,53,0.00,,,0.00,,2013-01-18 19:43:00,
2013-01-18 14:53:00,31.0,16.0,30.43,SSW,207,3.0,10.0,53,0.00,,,0.00,,2013-01-18 19:53:00,
2013-01-18 15:03:00,31.0,16.0,30.43,SW,234,4.0,7.0,53,0.00,,,0.00,,2013-01-18 20:03:00,
2013-01-18 15:13:00,31.0,16.0,30.43,SW,234,4.0,7.0,53,0.00,,,0.00,,2013-01-18 20:13:00,
2013-01-18 15:23:00,32.0,16.0,30.43,WSW,257,3.0,14.0,52,0.00,,,0.00,,2013-01-18 20:23:00,
2013-01-18 15:33:00,32.0,16.0,30.43,WSW,237,4.0,7.0,52,0.00,,,0.00,,2013-01-18 20:33:00,
2013-01-18 15:43:00,32.0,16.0,30.43,WSW,237,4.0,7.0,52,0.00,,,0.00,,2013-01-18 20:43:00,
2013-01-18 15:53:00,32.0,16.0,30.42,West,275,5.0,10.0,51,0.00,,,0.00,,2013-01-18 20:53:00,
2013-01-18 16:03:00,32.0,16.0,30.41,WSW,257,3.0,10.0,51,0.00,,,0.00,,2013-01-18 21:03:00,
2013-01-18 16:13:00,32.0,16.0,30.41,WSW,257,3.0,10.0,51,0.00,,,0.00,,2013-01-18 21:13:00,
2013-01-18 16:23:00,32.0,15.0,30.41,SSW,205,3.0,7.0,50,0.00,,,0.00,,2013-01-18 21:23:00,
2013-01-18 16:33:00,32.0,15.0,30.41,SW,227,2.0,8.0,50,0.00,,,0.00,,2013-01-18 21:33:00,
2013-01-18 16:43:00,32.0,15.0,30.41,SW,227,2.0,8.0,50,0.00,,,0.00,,2013-01-18 21:43:00,
2013-01-18 16:53:00,32.0,15.0,30.41,WSW,238,3.0,8.0,50,0.00,,,0.00,,2013-01-18 21:53:00,
2013-01-18 17:03:00,32.0,15.0,30.41,WSW,248,3.0,11.0,50,0.00,,,0.00,,2013-01-18 22:03:00,
2013-01-18 17:12:00,32.0,15.0,30.41,WSW,248,3.0,11.0,50,0.00,,,0.00,,2013-01-18 22:12:00,
2013-01-18 17:23:00,32.0,15.0,30.40,SW,233,3.0,9.0,49,0.00,,,0.00,,2013-01-18 22:23:00,
2013-01-18 17:33:00,32.0,15.0,30.39,West,281,2.0,7.0,50,0.00,,,0.00,,2013-01-18 22:33:00,
2013-01-18 17:43:00,32.0,15.0,30.39,West,281,2.0,7.0,50,0.00,,,0.00,,2013-01-18 22:43:00,
2013-01-18 17:53:00,31.0,15.0,30.40,SE,142,1.0,7.0,51,0.00,,,0.00,,2013-01-18 22:53:00,
2013-01-18 18:03:00,31.0,15.0,30.39,WSW,242,1.0,7.0,51,0.00,,,0.00,,2013-01-18 23:03:00,
2013-01-18 18:12:00,31.0,15.0,30.39,WSW,242,1.0,7.0,51,0.00,,,0.00,,2013-01-18 23:12:00,
2013-01-18 18:23:00,31.0,15.0,30.39,West,270,1.0,7.0,52,0.00,,,0.00,,2013-01-18 23:23:00,
2013-01-18 18:33:00,31.0,16.0,30.39,WSW,240,1.0,8.0,53,0.00,,,0.00,,2013-01-18 23:33:00,
2013-01-18 18:43:00,31.0,16.0,30.39,WSW,240,1.0,8.0,53,0.00,,,0.00,,2013-01-18 23:43:00,
2013-01-18 18:53:00,31.0,16.0,30.39,WSW,249,4.0,11.0,53,0.00,,,0.00,,2013-01-18 23:53:00,
2013-01-18 19:02:00,31.0,16.0,30.39,SW,226,4.0,8.0,54,0.00,,,0.00,,2013-01-19 00:02:00,
2013-01-18 19:12:00,31.0,16.0,30.39,SW,226,4.0,8.0,54,0.00,,,0.00,,2013-01-19 00:12:00,
2013-01-18 19:23:00,31.0,16.0,30.38,SW,223,3.0,8.0,54,0.00,,,0.00,,2013-01-19 00:23:00,
2013-01-18 19:33:00,30.0,15.0,30.38,West,271,3.0,8.0,54,0.00,,,0.00,,2013-01-19 00:33:00,
2013-01-18 19:43:00,30.0,15.0,30.38,West,271,3.0,8.0,54,0.00,,,0.00,,2013-01-19 00:43:00,
2013-01-18 19:53:00,30.0,15.0,30.38,WSW,238,5.0,9.0,54,0.00,,,0.00,,2013-01-19 00:53:00,
2013-01-18 20:02:00,30.0,15.0,30.38,SW,217,4.0,8.0,54,0.00,,,0.00,,2013-01-19 01:02:00,
2013-01-18 20:12:00,30.0,15.0,30.38,SW,217,4.0,8.0,54,0.00,,,0.00,,2013-01-19 01:12:00,
2013-01-18 20:22:00,30.0,16.0,30.37,WSW,239,3.0,8.0,55,0.00,,,0.00,,2013-01-19 01:22:00,
2013-01-18 20:33:00,30.0,16.0,30.36,SW,235,2.0,8.0,55,0.00,,,0.00,,2013-01-19 01:33:00,
2013-01-18 20:42:00,30.0,16.0,30.36,SW,235,2.0,8.0,55,0.00,,,0.00,,2013-01-19 01:42:00,
2013-01-18 20:53:00,30.0,16.0,30.36,WNW,288,2.0,7.0,55,0.00,,,0.00,,2013-01-19 01:53:00,
2013-01-18 21:02:00,30.0,16.0,30.36,SW,229,2.0,9.0,55,0.00,,,0.00,,2013-01-19 02:02:00,
2013-01-18 21:12:00,30.0,16.0,30.36,SW,229,2.0,9.0,55,0.00,,,0.00,,2013-01-19 02:12:00,
2013-01-18 21:23:00,30.0,15.0,30.35,WSW,245,3.0,8.0,54,0.00,,,0.00,,2013-01-19 02:23:00,
2013-01-18 21:33:00,31.0,16.0,30.35,SW,224,2.0,8.0,54,0.00,,,0.00,,2013-01-19 02:33:00,
2013-01-18 21:43:00,31.0,16.0,30.35,SW,224,2.0,8.0,54,0.00,,,0.00,,2013-01-19 02:43:00,
2013-01-18 21:53:00,30.0,15.0,30.35,SW,231,2.0,5.0,54,0.00,,,0.00,,2013-01-19 02:53:00,
2013-01-18 22:03:00,31.0,16.0,30.34,South,181,2.0,7.0,54,0.00,,,0.00,,2013-01-19 03:03:00,
2013-01-18 22:12:00,31.0,16.0,30.34,South,181,2.0,7.0,54,0.00,,,0.00,,2013-01-19 03:12:00,
2013-01-18 22:22:00,30.0,16.0,30.33,West,262,1.0,5.0,55,0.00,,,0.00,,2013-01-19 03:22:00,
2013-01-18 22:33:00,30.0,16.0,30.32,WNW,286,1.0,6.0,56,0.00,,,0.00,,2013-01-19 03:33:00,
2013-01-18 22:43:00,30.0,16.0,30.32,WNW,286,1.0,6.0,56,0.00,,,0.00,,2013-01-19 03:43:00,
2013-01-18 22:53:00,30.0,16.0,30.32,West,273,1.0,6.0,56,0.00,,,0.00,,2013-01-19 03:53:00,
2013-01-18 23:02:00,30.0,16.0,30.31,West,261,1.0,4.0,56,0.00,,,0.00,,2013-01-19 04:02:00,
2013-01-18 23:12:00,30.0,16.0,30.31,West,261,1.0,4.0,56,0.00,,,0.00,,2013-01-19 04:12:00,
2013-01-18 23:22:00,30.0,16.0,30.30,SSW,212,1.0,3.0,56,0.00,,,0.00,,2013-01-19 04:22:00,
2013-01-18 23:32:00,31.0,17.0,30.29,South,184,2.0,7.0,56,0.00,,,0.00,,2013-01-19 04:32:00,
2013-01-18 23:42:00,31.0,17.0,30.29,South,184,2.0,7.0,56,0.00,,,0.00,,2013-01-19 04:42:00,
2013-01-18 23:53:00,31.0,17.0,30.29,West,265,2.0,6.0,56,0.00,,,0.00,,2013-01-19 04:53:00,